sensor_id;sensor_type;location;lat;lon;timestamp;P1;durP1;ratioP1;P2;durP2;ratioP2
21833;SDS011;11079;51.092;3.458;2022-12-05T00:01:30;4.45;;;3.65;;
21833;SDS011;11079;51.092;3.458;2022-12-05T00:04:02;4.80;;;4.20;;
21833;SDS011;11079;51.092;3.458;2022-12-05T00:06:29;5.60;;;3.97;;
21833;SDS011;11079;51.092;3.458;2022-12-05T00:08:57;5.30;;;3.90;;
21833;SDS011;11079;51.092;3.458;2022-12-05T00:11:24;5.15;;;4.05;;
21833;SDS011;11079;51.092;3.458;2022-12-05T00:13:53;6.18;;;3.92;;
21833;SDS011;11079;51.092;3.458;2022-12-05T00:16:20;5.07;;;4.10;;
21833;SDS011;11079;51.092;3.458;2022-12-05T00:18:48;5.03;;;3.83;;
21833;SDS011;11079;51.092;3.458;2022-12-05T00:21:14;5.78;;;4.43;;
21833;SDS011;11079;51.092;3.458;2022-12-05T00:23:42;5.60;;;3.72;;
21833;SDS011;11079;51.092;3.458;2022-12-05T00:26:08;3.83;;;3.38;;
21833;SDS011;11079;51.092;3.458;2022-12-05T00:28:34;4.22;;;3.83;;
21833;SDS011;11079;51.092;3.458;2022-12-05T00:31:04;4.75;;;3.58;;
21833;SDS011;11079;51.092;3.458;2022-12-05T00:33:34;4.90;;;3.88;;
21833;SDS011;11079;51.092;3.458;2022-12-05T00:36:04;4.95;;;3.47;;
21833;SDS011;11079;51.092;3.458;2022-12-05T00:38:31;6.18;;;4.25;;
21833;SDS011;11079;51.092;3.458;2022-12-05T00:41:05;4.10;;;3.60;;
21833;SDS011;11079;51.092;3.458;2022-12-05T00:43:32;4.95;;;3.92;;
21833;SDS011;11079;51.092;3.458;2022-12-05T00:46:05;5.75;;;3.38;;
21833;SDS011;11079;51.092;3.458;2022-12-05T00:48:36;4.47;;;3.50;;
21833;SDS011;11079;51.092;3.458;2022-12-05T00:51:03;5.25;;;3.78;;
21833;SDS011;11079;51.092;3.458;2022-12-05T00:53:29;5.60;;;4.20;;
21833;SDS011;11079;51.092;3.458;2022-12-05T00:55:56;5.38;;;4.30;;
21833;SDS011;11079;51.092;3.458;2022-12-05T00:58:25;5.28;;;4.13;;
21833;SDS011;11079;51.092;3.458;2022-12-05T01:00:51;4.50;;;3.50;;
21833;SDS011;11079;51.092;3.458;2022-12-05T01:03:17;4.93;;;3.58;;
21833;SDS011;11079;51.092;3.458;2022-12-05T01:05:42;4.93;;;3.78;;
21833;SDS011;11079;51.092;3.458;2022-12-05T01:08:08;5.10;;;3.95;;
21833;SDS011;11079;51.092;3.458;2022-12-05T01:10:34;6.68;;;3.85;;
21833;SDS011;11079;51.092;3.458;2022-12-05T01:12:59;4.85;;;3.80;;
21833;SDS011;11079;51.092;3.458;2022-12-05T01:15:25;4.32;;;3.53;;
21833;SDS011;11079;51.092;3.458;2022-12-05T01:17:50;4.75;;;3.58;;
21833;SDS011;11079;51.092;3.458;2022-12-05T01:20:16;4.57;;;3.45;;
21833;SDS011;11079;51.092;3.458;2022-12-05T01:22:42;4.22;;;3.63;;
21833;SDS011;11079;51.092;3.458;2022-12-05T01:25:07;4.07;;;3.33;;
21833;SDS011;11079;51.092;3.458;2022-12-05T01:27:33;5.15;;;3.92;;
21833;SDS011;11079;51.092;3.458;2022-12-05T01:29:59;4.13;;;3.35;;
21833;SDS011;11079;51.092;3.458;2022-12-05T01:32:24;4.00;;;3.45;;
21833;SDS011;11079;51.092;3.458;2022-12-05T01:34:50;4.10;;;3.40;;
21833;SDS011;11079;51.092;3.458;2022-12-05T01:37:16;4.47;;;3.20;;
21833;SDS011;11079;51.092;3.458;2022-12-05T01:39:42;3.40;;;2.97;;
21833;SDS011;11079;51.092;3.458;2022-12-05T01:42:10;4.38;;;3.50;;
21833;SDS011;11079;51.092;3.458;2022-12-05T01:47:06;4.50;;;3.63;;
21833;SDS011;11079;51.092;3.458;2022-12-05T01:49:33;4.50;;;3.47;;
21833;SDS011;11079;51.092;3.458;2022-12-05T01:52:16;5.43;;;3.47;;
21833;SDS011;11079;51.092;3.458;2022-12-05T01:54:45;4.90;;;3.65;;
21833;SDS011;11079;51.092;3.458;2022-12-05T01:57:14;5.22;;;3.70;;
21833;SDS011;11079;51.092;3.458;2022-12-05T01:59:41;3.92;;;3.05;;
21833;SDS011;11079;51.092;3.458;2022-12-05T02:02:10;4.03;;;3.50;;
21833;SDS011;11079;51.092;3.458;2022-12-05T02:04:40;4.07;;;3.28;;
21833;SDS011;11079;51.092;3.458;2022-12-05T02:07:31;3.83;;;3.17;;
21833;SDS011;11079;51.092;3.458;2022-12-05T02:09:59;4.38;;;3.40;;
21833;SDS011;11079;51.092;3.458;2022-12-05T02:12:24;4.35;;;3.22;;
21833;SDS011;11079;51.092;3.458;2022-12-05T02:23:21;3.13;;;2.83;;
21833;SDS011;11079;51.092;3.458;2022-12-05T02:31:07;4.03;;;3.10;;
21833;SDS011;11079;51.092;3.458;2022-12-05T02:33:45;4.25;;;3.33;;
21833;SDS011;11079;51.092;3.458;2022-12-05T02:36:16;3.75;;;3.13;;
21833;SDS011;11079;51.092;3.458;2022-12-05T02:41:47;4.22;;;3.20;;
21833;SDS011;11079;51.092;3.458;2022-12-05T02:46:50;3.58;;;3.08;;
21833;SDS011;11079;51.092;3.458;2022-12-05T02:49:19;4.65;;;3.22;;
21833;SDS011;11079;51.092;3.458;2022-12-05T02:51:48;3.28;;;2.83;;
21833;SDS011;11079;51.092;3.458;2022-12-05T02:54:20;3.97;;;3.13;;
21833;SDS011;11079;51.092;3.458;2022-12-05T02:56:57;3.90;;;3.10;;
21833;SDS011;11079;51.092;3.458;2022-12-05T02:59:24;3.80;;;2.83;;
21833;SDS011;11079;51.092;3.458;2022-12-05T03:01:50;3.67;;;2.88;;
21833;SDS011;11079;51.092;3.458;2022-12-05T03:04:17;3.92;;;2.92;;
21833;SDS011;11079;51.092;3.458;2022-12-05T03:06:49;4.38;;;3.13;;
21833;SDS011;11079;51.092;3.458;2022-12-05T03:09:40;3.63;;;3.05;;
21833;SDS011;11079;51.092;3.458;2022-12-05T03:12:09;3.67;;;3.10;;
21833;SDS011;11079;51.092;3.458;2022-12-05T03:14:46;3.90;;;3.03;;
21833;SDS011;11079;51.092;3.458;2022-12-05T03:17:21;4.50;;;3.42;;
21833;SDS011;11079;51.092;3.458;2022-12-05T03:24:57;3.67;;;2.85;;
21833;SDS011;11079;51.092;3.458;2022-12-05T03:27:29;4.25;;;3.10;;
21833;SDS011;11079;51.092;3.458;2022-12-05T03:30:13;4.53;;;3.22;;
21833;SDS011;11079;51.092;3.458;2022-12-05T03:37:54;3.95;;;3.13;;
21833;SDS011;11079;51.092;3.458;2022-12-05T03:40:26;3.90;;;3.20;;
21833;SDS011;11079;51.092;3.458;2022-12-05T03:43:07;4.38;;;3.53;;
21833;SDS011;11079;51.092;3.458;2022-12-05T03:45:49;3.63;;;3.10;;
21833;SDS011;11079;51.092;3.458;2022-12-05T03:48:38;3.35;;;2.92;;
21833;SDS011;11079;51.092;3.458;2022-12-05T03:51:12;3.55;;;2.80;;
21833;SDS011;11079;51.092;3.458;2022-12-05T03:53:42;3.85;;;3.03;;
21833;SDS011;11079;51.092;3.458;2022-12-05T03:56:26;2.85;;;2.33;;
21833;SDS011;11079;51.092;3.458;2022-12-05T03:59:09;3.13;;;2.65;;
21833;SDS011;11079;51.092;3.458;2022-12-05T04:01:55;3.42;;;2.75;;
21833;SDS011;11079;51.092;3.458;2022-12-05T04:04:26;3.58;;;2.55;;
21833;SDS011;11079;51.092;3.458;2022-12-05T04:06:59;4.38;;;3.05;;
21833;SDS011;11079;51.092;3.458;2022-12-05T04:09:34;3.88;;;2.95;;
21833;SDS011;11079;51.092;3.458;2022-12-05T04:12:13;3.15;;;2.67;;
21833;SDS011;11079;51.092;3.458;2022-12-05T04:14:44;3.75;;;2.95;;
21833;SDS011;11079;51.092;3.458;2022-12-05T04:20:13;3.15;;;2.72;;
21833;SDS011;11079;51.092;3.458;2022-12-05T04:23:25;3.67;;;2.70;;
21833;SDS011;11079;51.092;3.458;2022-12-05T04:26:01;2.95;;;2.50;;
21833;SDS011;11079;51.092;3.458;2022-12-05T04:31:11;3.72;;;3.10;;
21833;SDS011;11079;51.092;3.458;2022-12-05T04:33:47;2.75;;;2.40;;
21833;SDS011;11079;51.092;3.458;2022-12-05T04:36:18;4.63;;;2.75;;
21833;SDS011;11079;51.092;3.458;2022-12-05T04:38:59;3.08;;;2.45;;
21833;SDS011;11079;51.092;3.458;2022-12-05T04:42:00;3.72;;;2.38;;
21833;SDS011;11079;51.092;3.458;2022-12-05T04:44:34;3.88;;;2.50;;
21833;SDS011;11079;51.092;3.458;2022-12-05T04:47:04;3.35;;;2.63;;
21833;SDS011;11079;51.092;3.458;2022-12-05T04:49:33;3.53;;;2.83;;
21833;SDS011;11079;51.092;3.458;2022-12-05T04:52:02;3.25;;;2.70;;
21833;SDS011;11079;51.092;3.458;2022-12-05T04:57:12;3.30;;;2.97;;
21833;SDS011;11079;51.092;3.458;2022-12-05T04:59:46;3.67;;;2.90;;
21833;SDS011;11079;51.092;3.458;2022-12-05T05:02:13;3.22;;;2.85;;
21833;SDS011;11079;51.092;3.458;2022-12-05T05:04:44;3.00;;;2.35;;
21833;SDS011;11079;51.092;3.458;2022-12-05T05:07:13;2.92;;;2.47;;
21833;SDS011;11079;51.092;3.458;2022-12-05T05:09:39;3.15;;;2.47;;
21833;SDS011;11079;51.092;3.458;2022-12-05T05:12:06;3.53;;;2.95;;
21833;SDS011;11079;51.092;3.458;2022-12-05T05:14:31;2.83;;;2.35;;
21833;SDS011;11079;51.092;3.458;2022-12-05T05:16:57;3.55;;;2.80;;
21833;SDS011;11079;51.092;3.458;2022-12-05T05:19:23;3.33;;;2.58;;
21833;SDS011;11079;51.092;3.458;2022-12-05T05:21:49;3.85;;;2.47;;
21833;SDS011;11079;51.092;3.458;2022-12-05T05:24:15;3.50;;;2.47;;
21833;SDS011;11079;51.092;3.458;2022-12-05T05:26:43;3.22;;;2.55;;
21833;SDS011;11079;51.092;3.458;2022-12-05T05:29:10;3.35;;;2.55;;
21833;SDS011;11079;51.092;3.458;2022-12-05T05:31:36;2.97;;;2.55;;
21833;SDS011;11079;51.092;3.458;2022-12-05T05:34:04;3.75;;;2.35;;
21833;SDS011;11079;51.092;3.458;2022-12-05T05:36:29;2.83;;;2.15;;
21833;SDS011;11079;51.092;3.458;2022-12-05T05:38:56;3.72;;;2.92;;
21833;SDS011;11079;51.092;3.458;2022-12-05T05:41:26;2.50;;;2.20;;
21833;SDS011;11079;51.092;3.458;2022-12-05T05:43:56;2.80;;;2.55;;
21833;SDS011;11079;51.092;3.458;2022-12-05T05:46:23;3.17;;;2.35;;
21833;SDS011;11079;51.092;3.458;2022-12-05T05:48:51;3.30;;;2.40;;
21833;SDS011;11079;51.092;3.458;2022-12-05T05:51:16;2.80;;;2.30;;
21833;SDS011;11079;51.092;3.458;2022-12-05T05:53:43;3.67;;;2.67;;
21833;SDS011;11079;51.092;3.458;2022-12-05T05:56:10;2.88;;;2.38;;
21833;SDS011;11079;51.092;3.458;2022-12-05T05:58:37;3.20;;;2.50;;
21833;SDS011;11079;51.092;3.458;2022-12-05T06:03:33;2.78;;;2.47;;
21833;SDS011;11079;51.092;3.458;2022-12-05T06:06:00;3.53;;;2.60;;
21833;SDS011;11079;51.092;3.458;2022-12-05T06:08:32;2.88;;;2.40;;
21833;SDS011;11079;51.092;3.458;2022-12-05T06:11:03;2.83;;;2.53;;
21833;SDS011;11079;51.092;3.458;2022-12-05T06:13:30;3.28;;;2.50;;
21833;SDS011;11079;51.092;3.458;2022-12-05T06:15:56;2.97;;;2.40;;
21833;SDS011;11079;51.092;3.458;2022-12-05T06:18:21;3.10;;;2.60;;
21833;SDS011;11079;51.092;3.458;2022-12-05T06:20:52;3.90;;;3.00;;
21833;SDS011;11079;51.092;3.458;2022-12-05T06:23:18;3.03;;;2.33;;
21833;SDS011;11079;51.092;3.458;2022-12-05T06:25:48;3.00;;;2.40;;
21833;SDS011;11079;51.092;3.458;2022-12-05T06:28:14;2.95;;;2.20;;
21833;SDS011;11079;51.092;3.458;2022-12-05T06:30:41;2.78;;;2.30;;
21833;SDS011;11079;51.092;3.458;2022-12-05T06:33:07;2.15;;;1.90;;
21833;SDS011;11079;51.092;3.458;2022-12-05T06:35:32;2.70;;;2.22;;
21833;SDS011;11079;51.092;3.458;2022-12-05T06:37:58;2.95;;;2.38;;
21833;SDS011;11079;51.092;3.458;2022-12-05T06:40:23;3.42;;;2.65;;
21833;SDS011;11079;51.092;3.458;2022-12-05T06:42:49;2.42;;;2.20;;
21833;SDS011;11079;51.092;3.458;2022-12-05T06:45:15;2.72;;;2.33;;
21833;SDS011;11079;51.092;3.458;2022-12-05T06:47:40;3.28;;;2.65;;
21833;SDS011;11079;51.092;3.458;2022-12-05T06:50:06;2.45;;;2.03;;
21833;SDS011;11079;51.092;3.458;2022-12-05T06:52:32;3.03;;;2.50;;
21833;SDS011;11079;51.092;3.458;2022-12-05T06:54:58;3.45;;;2.55;;
21833;SDS011;11079;51.092;3.458;2022-12-05T06:57:23;3.05;;;2.58;;
21833;SDS011;11079;51.092;3.458;2022-12-05T06:59:50;2.55;;;2.20;;
21833;SDS011;11079;51.092;3.458;2022-12-05T07:02:15;2.67;;;2.28;;
21833;SDS011;11079;51.092;3.458;2022-12-05T07:04:41;3.30;;;2.38;;
21833;SDS011;11079;51.092;3.458;2022-12-05T07:07:06;3.60;;;2.70;;
21833;SDS011;11079;51.092;3.458;2022-12-05T07:09:32;2.85;;;2.22;;
21833;SDS011;11079;51.092;3.458;2022-12-05T07:12:12;3.00;;;2.38;;
21833;SDS011;11079;51.092;3.458;2022-12-05T07:14:39;3.00;;;2.38;;
21833;SDS011;11079;51.092;3.458;2022-12-05T07:17:05;2.45;;;2.25;;
21833;SDS011;11079;51.092;3.458;2022-12-05T07:19:31;3.30;;;2.28;;
21833;SDS011;11079;51.092;3.458;2022-12-05T07:21:57;2.58;;;2.28;;
21833;SDS011;11079;51.092;3.458;2022-12-05T07:24:22;2.38;;;2.08;;
21833;SDS011;11079;51.092;3.458;2022-12-05T07:26:48;3.10;;;2.38;;
21833;SDS011;11079;51.092;3.458;2022-12-05T07:29:14;2.92;;;2.25;;
21833;SDS011;11079;51.092;3.458;2022-12-05T07:31:39;3.53;;;2.58;;
21833;SDS011;11079;51.092;3.458;2022-12-05T07:34:05;3.42;;;2.55;;
21833;SDS011;11079;51.092;3.458;2022-12-05T07:36:31;3.30;;;2.42;;
21833;SDS011;11079;51.092;3.458;2022-12-05T07:38:57;2.78;;;2.10;;
21833;SDS011;11079;51.092;3.458;2022-12-05T07:41:27;3.10;;;2.40;;
21833;SDS011;11079;51.092;3.458;2022-12-05T07:43:54;2.15;;;1.95;;
21833;SDS011;11079;51.092;3.458;2022-12-05T07:46:21;6.38;;;4.32;;
21833;SDS011;11079;51.092;3.458;2022-12-05T07:48:48;7.57;;;5.72;;
21833;SDS011;11079;51.092;3.458;2022-12-05T07:51:14;8.82;;;7.25;;
21833;SDS011;11079;51.092;3.458;2022-12-05T07:53:40;12.48;;;8.15;;
21833;SDS011;11079;51.092;3.458;2022-12-05T07:56:07;14.10;;;10.40;;
21833;SDS011;11079;51.092;3.458;2022-12-05T07:58:35;12.90;;;10.07;;
21833;SDS011;11079;51.092;3.458;2022-12-05T08:01:07;13.95;;;10.35;;
21833;SDS011;11079;51.092;3.458;2022-12-05T08:03:41;15.82;;;11.95;;
21833;SDS011;11079;51.092;3.458;2022-12-05T08:06:09;14.90;;;11.60;;
21833;SDS011;11079;51.092;3.458;2022-12-05T08:08:36;16.95;;;11.88;;
21833;SDS011;11079;51.092;3.458;2022-12-05T08:11:03;16.00;;;11.73;;
21833;SDS011;11079;51.092;3.458;2022-12-05T08:13:30;18.10;;;13.25;;
21833;SDS011;11079;51.092;3.458;2022-12-05T08:16:00;15.77;;;12.15;;
21833;SDS011;11079;51.092;3.458;2022-12-05T08:18:27;15.63;;;12.18;;
21833;SDS011;11079;51.092;3.458;2022-12-05T08:20:53;15.38;;;11.70;;
21833;SDS011;11079;51.092;3.458;2022-12-05T08:23:18;13.75;;;11.15;;
21833;SDS011;11079;51.092;3.458;2022-12-05T08:25:44;12.77;;;10.40;;
21833;SDS011;11079;51.092;3.458;2022-12-05T08:28:10;13.50;;;10.15;;
21833;SDS011;11079;51.092;3.458;2022-12-05T08:30:35;12.77;;;10.43;;
21833;SDS011;11079;51.092;3.458;2022-12-05T08:33:01;12.30;;;9.65;;
21833;SDS011;11079;51.092;3.458;2022-12-05T08:35:27;11.98;;;9.65;;
21833;SDS011;11079;51.092;3.458;2022-12-05T08:37:53;11.20;;;9.20;;
21833;SDS011;11079;51.092;3.458;2022-12-05T08:40:18;11.32;;;9.30;;
21833;SDS011;11079;51.092;3.458;2022-12-05T08:42:44;11.10;;;8.70;;
21833;SDS011;11079;51.092;3.458;2022-12-05T08:45:10;11.57;;;9.55;;
21833;SDS011;11079;51.092;3.458;2022-12-05T08:47:35;11.75;;;8.88;;
21833;SDS011;11079;51.092;3.458;2022-12-05T08:50:01;14.68;;;9.57;;
21833;SDS011;11079;51.092;3.458;2022-12-05T08:52:27;11.45;;;8.65;;
21833;SDS011;11079;51.092;3.458;2022-12-05T08:54:52;12.80;;;8.85;;
21833;SDS011;11079;51.092;3.458;2022-12-05T08:57:18;11.65;;;8.98;;
21833;SDS011;11079;51.092;3.458;2022-12-05T08:59:43;9.70;;;7.80;;
21833;SDS011;11079;51.092;3.458;2022-12-05T09:02:09;11.85;;;8.75;;
21833;SDS011;11079;51.092;3.458;2022-12-05T09:04:35;10.57;;;8.02;;
21833;SDS011;11079;51.092;3.458;2022-12-05T09:07:01;10.85;;;8.38;;
21833;SDS011;11079;51.092;3.458;2022-12-05T09:09:27;9.77;;;8.63;;
21833;SDS011;11079;51.092;3.458;2022-12-05T09:11:53;9.73;;;7.90;;
21833;SDS011;11079;51.092;3.458;2022-12-05T09:14:19;9.93;;;8.07;;
21833;SDS011;11079;51.092;3.458;2022-12-05T09:16:45;9.63;;;8.00;;
21833;SDS011;11079;51.092;3.458;2022-12-05T09:19:12;10.57;;;7.95;;
21833;SDS011;11079;51.092;3.458;2022-12-05T09:21:48;8.45;;;7.50;;
21833;SDS011;11079;51.092;3.458;2022-12-05T09:24:14;9.60;;;7.95;;
21833;SDS011;11079;51.092;3.458;2022-12-05T09:26:40;8.57;;;7.03;;
21833;SDS011;11079;51.092;3.458;2022-12-05T09:29:07;9.25;;;7.68;;
21833;SDS011;11079;51.092;3.458;2022-12-05T09:31:34;9.10;;;7.65;;
21833;SDS011;11079;51.092;3.458;2022-12-05T09:34:01;10.05;;;7.32;;
21833;SDS011;11079;51.092;3.458;2022-12-05T09:36:27;9.38;;;7.63;;
21833;SDS011;11079;51.092;3.458;2022-12-05T09:38:55;9.85;;;7.90;;
21833;SDS011;11079;51.092;3.458;2022-12-05T09:50:01;8.10;;;7.07;;
21833;SDS011;11079;51.092;3.458;2022-12-05T09:55:35;8.43;;;7.15;;
21833;SDS011;11079;51.092;3.458;2022-12-05T09:58:33;9.90;;;6.43;;
21833;SDS011;11079;51.092;3.458;2022-12-05T10:01:21;10.15;;;7.20;;
21833;SDS011;11079;51.092;3.458;2022-12-05T10:04:15;8.90;;;6.78;;
21833;SDS011;11079;51.092;3.458;2022-12-05T10:09:46;9.00;;;6.63;;
21833;SDS011;11079;51.092;3.458;2022-12-05T10:15:07;29.67;;;12.10;;
21833;SDS011;11079;51.092;3.458;2022-12-05T10:18:09;35.28;;;14.30;;
21833;SDS011;11079;51.092;3.458;2022-12-05T10:20:42;36.30;;;14.43;;
21833;SDS011;11079;51.092;3.458;2022-12-05T10:23:23;36.15;;;14.43;;
21833;SDS011;11079;51.092;3.458;2022-12-05T10:25:56;33.75;;;14.80;;
21833;SDS011;11079;51.092;3.458;2022-12-05T10:29:28;38.13;;;13.65;;
21833;SDS011;11079;51.092;3.458;2022-12-05T10:31:34;30.20;;;12.48;;
21833;SDS011;11079;51.092;3.458;2022-12-05T10:34:03;27.55;;;12.50;;
21833;SDS011;11079;51.092;3.458;2022-12-05T10:36:36;32.50;;;12.75;;
21833;SDS011;11079;51.092;3.458;2022-12-05T10:39:01;36.30;;;12.00;;
21833;SDS011;11079;51.092;3.458;2022-12-05T10:41:27;28.20;;;11.95;;
21833;SDS011;11079;51.092;3.458;2022-12-05T10:43:53;34.08;;;12.10;;
21833;SDS011;11079;51.092;3.458;2022-12-05T10:46:21;27.77;;;12.43;;
21833;SDS011;11079;51.092;3.458;2022-12-05T10:48:47;23.67;;;11.93;;
21833;SDS011;11079;51.092;3.458;2022-12-05T10:51:14;24.45;;;12.02;;
21833;SDS011;11079;51.092;3.458;2022-12-05T10:59:03;19.60;;;10.68;;
21833;SDS011;11079;51.092;3.458;2022-12-05T11:01:30;20.77;;;10.05;;
21833;SDS011;11079;51.092;3.458;2022-12-05T11:04:00;27.13;;;11.60;;
21833;SDS011;11079;51.092;3.458;2022-12-05T11:06:49;20.63;;;10.23;;
21833;SDS011;11079;51.092;3.458;2022-12-05T11:09:39;21.60;;;10.05;;
21833;SDS011;11079;51.092;3.458;2022-12-05T11:12:15;20.17;;;9.80;;
21833;SDS011;11079;51.092;3.458;2022-12-05T11:17:31;20.65;;;10.40;;
21833;SDS011;11079;51.092;3.458;2022-12-05T11:22:47;23.58;;;10.60;;
21833;SDS011;11079;51.092;3.458;2022-12-05T11:27:52;18.40;;;9.60;;
21833;SDS011;11079;51.092;3.458;2022-12-05T11:30:22;17.67;;;9.82;;
21833;SDS011;11079;51.092;3.458;2022-12-05T11:32:54;18.63;;;9.80;;
21833;SDS011;11079;51.092;3.458;2022-12-05T11:35:45;18.05;;;9.43;;
21833;SDS011;11079;51.092;3.458;2022-12-05T11:38:11;16.70;;;8.88;;
21833;SDS011;11079;51.092;3.458;2022-12-05T12:00:56;17.92;;;8.88;;
21833;SDS011;11079;51.092;3.458;2022-12-05T12:05:53;14.43;;;8.15;;
21833;SDS011;11079;51.092;3.458;2022-12-05T12:08:33;15.48;;;8.45;;
21833;SDS011;11079;51.092;3.458;2022-12-05T12:11:07;16.63;;;8.27;;
21833;SDS011;11079;51.092;3.458;2022-12-05T12:14:18;14.40;;;8.23;;
21833;SDS011;11079;51.092;3.458;2022-12-05T12:28:03;13.77;;;7.78;;
21833;SDS011;11079;51.092;3.458;2022-12-05T12:30:52;12.65;;;7.70;;
21833;SDS011;11079;51.092;3.458;2022-12-05T12:52:01;13.57;;;7.22;;
21833;SDS011;11079;51.092;3.458;2022-12-05T13:03:05;12.02;;;7.32;;
21833;SDS011;11079;51.092;3.458;2022-12-05T13:05:47;11.63;;;6.75;;
21833;SDS011;11079;51.092;3.458;2022-12-05T13:08:27;11.02;;;6.88;;
21833;SDS011;11079;51.092;3.458;2022-12-05T13:11:05;10.48;;;6.70;;
21833;SDS011;11079;51.092;3.458;2022-12-05T13:14:07;10.77;;;6.75;;
21833;SDS011;11079;51.092;3.458;2022-12-05T13:16:27;11.20;;;7.22;;
21833;SDS011;11079;51.092;3.458;2022-12-05T13:19:05;10.63;;;7.07;;
21833;SDS011;11079;51.092;3.458;2022-12-05T13:21:38;12.65;;;6.60;;
21833;SDS011;11079;51.092;3.458;2022-12-05T13:24:03;12.30;;;7.28;;
21833;SDS011;11079;51.092;3.458;2022-12-05T13:26:30;10.02;;;6.95;;
21833;SDS011;11079;51.092;3.458;2022-12-05T13:28:58;14.20;;;7.28;;
21833;SDS011;11079;51.092;3.458;2022-12-05T13:31:37;9.43;;;6.47;;
21833;SDS011;11079;51.092;3.458;2022-12-05T13:34:05;12.52;;;6.93;;
21833;SDS011;11079;51.092;3.458;2022-12-05T13:36:51;11.60;;;6.72;;
21833;SDS011;11079;51.092;3.458;2022-12-05T13:39:36;13.98;;;7.05;;
21833;SDS011;11079;51.092;3.458;2022-12-05T13:42:22;10.57;;;7.25;;
21833;SDS011;11079;51.092;3.458;2022-12-05T13:45:25;8.65;;;6.60;;
21833;SDS011;11079;51.092;3.458;2022-12-05T13:53:01;11.35;;;6.78;;
21833;SDS011;11079;51.092;3.458;2022-12-05T13:55:31;9.23;;;6.40;;
21833;SDS011;11079;51.092;3.458;2022-12-05T13:57:58;9.52;;;6.28;;
21833;SDS011;11079;51.092;3.458;2022-12-05T14:00:26;9.20;;;6.57;;
21833;SDS011;11079;51.092;3.458;2022-12-05T14:03:00;12.02;;;6.75;;
21833;SDS011;11079;51.092;3.458;2022-12-05T14:05:34;9.98;;;6.68;;
21833;SDS011;11079;51.092;3.458;2022-12-05T14:15:46;9.68;;;6.68;;
21833;SDS011;11079;51.092;3.458;2022-12-05T14:20:57;10.30;;;6.50;;
21833;SDS011;11079;51.092;3.458;2022-12-05T14:32:09;10.32;;;6.63;;
21833;SDS011;11079;51.092;3.458;2022-12-05T14:38:01;9.27;;;6.00;;
21833;SDS011;11079;51.092;3.458;2022-12-05T14:45:43;9.07;;;5.90;;
21833;SDS011;11079;51.092;3.458;2022-12-05T14:50:44;9.00;;;5.57;;
21833;SDS011;11079;51.092;3.458;2022-12-05T14:53:17;7.82;;;5.15;;
21833;SDS011;11079;51.092;3.458;2022-12-05T14:58:16;8.25;;;5.90;;
21833;SDS011;11079;51.092;3.458;2022-12-05T15:00:58;6.40;;;5.43;;
21833;SDS011;11079;51.092;3.458;2022-12-05T15:03:30;8.77;;;5.72;;
21833;SDS011;11079;51.092;3.458;2022-12-05T15:06:00;6.63;;;5.38;;
21833;SDS011;11079;51.092;3.458;2022-12-05T15:08:28;7.57;;;5.50;;
21833;SDS011;11079;51.092;3.458;2022-12-05T15:11:01;8.95;;;5.80;;
21833;SDS011;11079;51.092;3.458;2022-12-05T15:13:28;9.45;;;5.85;;
21833;SDS011;11079;51.092;3.458;2022-12-05T15:15:58;10.70;;;5.88;;
21833;SDS011;11079;51.092;3.458;2022-12-05T15:18:36;9.10;;;5.32;;
21833;SDS011;11079;51.092;3.458;2022-12-05T15:21:21;7.40;;;5.10;;
21833;SDS011;11079;51.092;3.458;2022-12-05T15:26:22;7.22;;;5.07;;
21833;SDS011;11079;51.092;3.458;2022-12-05T15:28:58;6.75;;;5.18;;
21833;SDS011;11079;51.092;3.458;2022-12-05T15:34:12;7.07;;;5.25;;
21833;SDS011;11079;51.092;3.458;2022-12-05T15:36:44;8.48;;;5.82;;
21833;SDS011;11079;51.092;3.458;2022-12-05T15:39:19;7.28;;;5.50;;
21833;SDS011;11079;51.092;3.458;2022-12-05T15:41:50;7.55;;;5.20;;
21833;SDS011;11079;51.092;3.458;2022-12-05T15:44:17;7.40;;;5.32;;
21833;SDS011;11079;51.092;3.458;2022-12-05T15:46:44;8.10;;;5.00;;
21833;SDS011;11079;51.092;3.458;2022-12-05T15:49:16;6.95;;;5.18;;
21833;SDS011;11079;51.092;3.458;2022-12-05T15:51:47;9.32;;;5.60;;
21833;SDS011;11079;51.092;3.458;2022-12-05T15:54:17;6.72;;;5.22;;
21833;SDS011;11079;51.092;3.458;2022-12-05T15:56:52;7.60;;;4.72;;
21833;SDS011;11079;51.092;3.458;2022-12-05T15:59:41;7.75;;;5.18;;
21833;SDS011;11079;51.092;3.458;2022-12-05T16:02:19;6.60;;;5.00;;
21833;SDS011;11079;51.092;3.458;2022-12-05T16:05:04;8.60;;;5.63;;
21833;SDS011;11079;51.092;3.458;2022-12-05T16:07:41;7.38;;;5.20;;
21833;SDS011;11079;51.092;3.458;2022-12-05T16:10:11;7.22;;;4.97;;
21833;SDS011;11079;51.092;3.458;2022-12-05T16:12:40;5.70;;;4.53;;
21833;SDS011;11079;51.092;3.458;2022-12-05T16:15:09;6.28;;;4.32;;
21833;SDS011;11079;51.092;3.458;2022-12-05T16:17:45;7.68;;;4.90;;
21833;SDS011;11079;51.092;3.458;2022-12-05T16:22:44;7.80;;;5.10;;
21833;SDS011;11079;51.092;3.458;2022-12-05T16:25:16;6.00;;;4.63;;
21833;SDS011;11079;51.092;3.458;2022-12-05T16:28:00;5.53;;;4.30;;
21833;SDS011;11079;51.092;3.458;2022-12-05T16:30:32;6.45;;;4.80;;
21833;SDS011;11079;51.092;3.458;2022-12-05T16:35:30;6.20;;;4.63;;
21833;SDS011;11079;51.092;3.458;2022-12-05T16:38:31;5.85;;;4.65;;
21833;SDS011;11079;51.092;3.458;2022-12-05T16:40:57;6.90;;;4.70;;
21833;SDS011;11079;51.092;3.458;2022-12-05T16:46:42;5.50;;;4.32;;
21833;SDS011;11079;51.092;3.458;2022-12-05T16:48:45;6.20;;;3.85;;
21833;SDS011;11079;51.092;3.458;2022-12-05T16:53:42;6.05;;;4.28;;
21833;SDS011;11079;51.092;3.458;2022-12-05T16:56:17;5.22;;;4.32;;
21833;SDS011;11079;51.092;3.458;2022-12-05T16:58:44;5.25;;;4.05;;
21833;SDS011;11079;51.092;3.458;2022-12-05T17:01:15;6.72;;;4.32;;
21833;SDS011;11079;51.092;3.458;2022-12-05T17:03:45;6.15;;;4.40;;
21833;SDS011;11079;51.092;3.458;2022-12-05T17:06:11;5.60;;;3.90;;
21833;SDS011;11079;51.092;3.458;2022-12-05T17:08:38;5.13;;;3.80;;
21833;SDS011;11079;51.092;3.458;2022-12-05T17:11:07;5.43;;;3.90;;
21833;SDS011;11079;51.092;3.458;2022-12-05T17:13:45;6.78;;;4.15;;
21833;SDS011;11079;51.092;3.458;2022-12-05T17:16:13;6.47;;;4.20;;
21833;SDS011;11079;51.092;3.458;2022-12-05T17:18:39;5.88;;;4.32;;
21833;SDS011;11079;51.092;3.458;2022-12-05T17:21:05;5.32;;;4.00;;
21833;SDS011;11079;51.092;3.458;2022-12-05T17:23:31;5.68;;;3.58;;
21833;SDS011;11079;51.092;3.458;2022-12-05T17:25:57;5.57;;;4.07;;
21833;SDS011;11079;51.092;3.458;2022-12-05T17:28:23;5.72;;;3.53;;
21833;SDS011;11079;51.092;3.458;2022-12-05T17:30:49;4.60;;;4.00;;
21833;SDS011;11079;51.092;3.458;2022-12-05T17:33:16;5.05;;;3.88;;
21833;SDS011;11079;51.092;3.458;2022-12-05T17:35:43;5.15;;;3.65;;
21833;SDS011;11079;51.092;3.458;2022-12-05T17:38:09;5.38;;;3.85;;
21833;SDS011;11079;51.092;3.458;2022-12-05T17:40:34;6.88;;;4.07;;
21833;SDS011;11079;51.092;3.458;2022-12-05T17:43:00;3.90;;;3.50;;
21833;SDS011;11079;51.092;3.458;2022-12-05T17:45:26;4.18;;;3.50;;
21833;SDS011;11079;51.092;3.458;2022-12-05T17:47:52;6.22;;;4.00;;
21833;SDS011;11079;51.092;3.458;2022-12-05T17:50:19;4.47;;;3.70;;
21833;SDS011;11079;51.092;3.458;2022-12-05T17:52:46;4.45;;;3.72;;
21833;SDS011;11079;51.092;3.458;2022-12-05T17:55:23;4.60;;;3.70;;
21833;SDS011;11079;51.092;3.458;2022-12-05T17:57:52;4.43;;;3.55;;
21833;SDS011;11079;51.092;3.458;2022-12-05T18:00:20;5.28;;;3.80;;
21833;SDS011;11079;51.092;3.458;2022-12-05T18:02:47;6.70;;;3.78;;
21833;SDS011;11079;51.092;3.458;2022-12-05T18:05:13;5.53;;;3.60;;
21833;SDS011;11079;51.092;3.458;2022-12-05T18:07:40;5.55;;;3.25;;
21833;SDS011;11079;51.092;3.458;2022-12-05T18:10:08;5.68;;;3.15;;
21833;SDS011;11079;51.092;3.458;2022-12-05T18:12:36;3.72;;;3.25;;